Eagle, Colorado
Current Conditions -  °F | °C
As of 12:15 AM on Monday 22 Dec 2014 (Local Time) from KEGE Reporting Station
Broken Clouds Broken Clouds  
Wind Chill: 28°   Ceiling: 5500
Heat Index: 34°   Visibility: 10mi
Dew Point: 30°   Wind: 7mph
Humidity: 87%   Direction: 60°ENE
Pressure: 29.82"   Gusts: NA
Location:  39.66°N, 106.83°W
Report Text: KEGE 220715Z AUTO 06006KT 10SM FEW018 SCT045 BKN055 01/M01 A2982 RMK AO1
Loading
Personal Weather Stations






























Interactive Weather Map New forecast layout! Learn more

10-Day Weather Forecast

Advertisements
Track Severe Weather on mobile